Latest Weather Observations for Busselton Jetty

IDW60801

Issued at 8:35 pm WST Thursday 2 October 2014 (issued every 30 minutes, with the page automatically refreshed every 10 minutes)

About weather observations | Map of weather stations | Latest weather observations for WA | Other Formats
Station Details ID: 009937 Name: BUSSELTON JETTY Lat: -33.63 Lon: 115.34 Height: 3.0 m
Data from the previous 72 hours. | See also: Recent months for locations in Western Australia
Date/Time
WST
Temp
°C
App
Temp
°C
Dew
Point
Rel
Hum
%
Delta-T
°C
Wind Press
QNH
hPa
Press
MSL
hPa
Rain
since 9 am
mm
Dir
 
Spd
km/h
Gust
km/h
Spd
kts
Gust
kts
02/08:30pm - - - - - WSW 28 32 15 17 - - -
02/08:00pm - - - - - WSW 33 39 18 21 - - -
02/07:30pm - - - - - WSW 20 26 11 14 - - -
02/07:00pm - - - - - WSW 35 41 19 22 - - -
02/06:30pm - - - - - WSW 33 41 18 22 - - -
02/06:00pm - - - - - WSW 33 43 18 23 - - -
02/05:30pm - - - - - WSW 33 39 18 21 - - -
02/05:00pm - - - - - WSW 33 41 18 22 - - -
02/04:30pm - - - - - WSW 35 44 19 24 - - -
02/04:00pm - - - - - W 33 39 18 21 - - -
02/03:30pm - - - - - W 35 39 19 21 - - -
02/03:00pm - - - - - N 26 28 14 15 - - -
02/02:30pm - - - - - N 24 28 13 15 - - -
02/02:00pm - - - - - NNE 22 26 12 14 - - -
02/01:30pm - - - - - N 19 20 10 11 - - -
02/01:00pm - - - - - N 20 22 11 12 - - -
02/12:30pm - - - - - NNE 20 26 11 14 - - -
02/12:00pm - - - - - NE 20 22 11 12 - - -
02/11:30am - - - - - ENE 17 19 9 10 - - -
02/11:00am - - - - - ENE 13 15 7 8 - - -
02/10:30am - - - - - SSE 9 9 5 5 - - -
02/10:00am - - - - - CALM 0 0 0 0 - - -
02/09:30am - - - - - CALM 0 0 0 0 - - -
02/09:00am - - - - - NNW 11 17 6 9 - - -
02/08:30am - - - - - NNE 9 13 5 7 - - -
02/08:00am - - - - - ESE 20 24 11 13 - - -
02/07:30am - - - - - SE 20 24 11 13 - - -
02/07:00am - - - - - SE 24 26 13 14 - - -
02/06:30am - - - - - SSE 19 22 10 12 - - -
02/06:00am - - - - - SE 20 26 11 14 - - -
02/05:30am - - - - - SSE 19 20 10 11 - - -
02/05:00am - - - - - CALM 0 0 0 0 - - -
02/04:30am - - - - - ESE 9 11 5 6 - - -
02/04:00am - - - - - ESE 20 24 11 13 - - -
02/03:30am - - - - - ESE 26 32 14 17 - - -
02/03:00am - - - - - ESE 26 28 14 15 - - -
02/02:30am - - - - - ESE 30 33 16 18 - - -
02/02:00am - - - - - ESE 30 32 16 17 - - -
02/01:30am - - - - - ESE 30 33 16 18 - - -
02/01:00am - - - - - ESE 28 30 15 16 - - -
02/12:30am - - - - - E 37 43 20 23 - - -
02/12:00am - - - - - E 39 43 21 23 - - -
 
Date/Time
WST
Temp
°C
App
Temp
°C
Dew
Point
Rel
Hum
%
Delta-T
°C
Wind Press
QNH
hPa
Press
MSL
hPa
Rain
since 9 am
mm
Dir
 
Spd
km/h
Gust
km/h
Spd
kts
Gust
kts
01/11:53pm - - - - - E 41 43 22 23 - - -
01/11:30pm - - - - - ENE 35 41 19 22 - - -
01/11:26pm - - - - - ENE 37 41 20 22 - - -
01/11:00pm - - - - - ESE 28 32 15 17 - - -
01/10:30pm - - - - - E 26 30 14 16 - - -
01/10:00pm - - - - - E 19 20 10 11 - - -
01/09:30pm - - - - - ESE 19 22 10 12 - - -
01/09:00pm - - - - - SSE 17 20 9 11 - - -
01/08:30pm - - - - - SSE 19 20 10 11 - - -
01/08:00pm - - - - - SSE 17 19 9 10 - - -
01/07:30pm - - - - - SE 22 26 12 14 - - -
01/07:00pm - - - - - SE 28 32 15 17 - - -
01/06:30pm - - - - - SE 15 19 8 10 - - -
01/06:00pm - - - - - SSE 17 19 9 10 - - -
01/05:30pm - - - - - SE 17 17 9 9 - - -
01/05:00pm - - - - - ESE 11 13 6 7 - - -
01/04:30pm - - - - - E 9 11 5 6 - - -
01/04:00pm - - - - - E 11 15 6 8 - - -
01/03:30pm - - - - - E 9 13 5 7 - - -
01/03:00pm - - - - - ENE 7 9 4 5 - - -
01/02:30pm - - - - - N 4 7 2 4 - - -
01/02:00pm - - - - - N 4 7 2 4 - - -
01/01:30pm - - - - - CALM 0 0 0 0 - - -
01/01:00pm - - - - - CALM 0 0 0 0 - - -
01/12:30pm - - - - - ENE 6 6 3 3 - - -
01/12:00pm - - - - - ENE 6 7 3 4 - - -
01/11:30am - - - - - E 9 11 5 6 - - -
01/11:00am - - - - - E 15 19 8 10 - - -
01/10:30am - - - - - E 9 11 5 6 - - -
01/10:00am - - - - - ESE 19 20 10 11 - - -
01/09:30am - - - - - ESE 24 28 13 15 - - -
01/09:00am - - - - - ESE 24 32 13 17 - - -
01/08:30am - - - - - ESE 24 30 13 16 - - -
01/08:00am - - - - - ESE 28 33 15 18 - - -
01/07:30am - - - - - SE 24 30 13 16 - - -
01/07:00am - - - - - SE 22 30 12 16 - - -
01/06:30am - - - - - SE 20 28 11 15 - - -
01/06:00am - - - - - SE 19 28 10 15 - - -
01/05:30am - - - - - SE 19 26 10 14 - - -
01/05:00am - - - - - SE 17 24 9 13 - - -
01/04:30am - - - - - SSE 19 24 10 13 - - -
01/04:00am - - - - - SE 20 26 11 14 - - -
01/03:30am - - - - - SE 17 22 9 12 - - -
01/03:00am - - - - - SE 17 20 9 11 - - -
01/02:30am - - - - - SSE 17 20 9 11 - - -
01/02:00am - - - - - S 17 19 9 10 - - -
01/01:30am - - - - - S 17 20 9 11 - - -
01/01:00am - - - - - SSW 17 19 9 10 - - -
01/12:30am - - - - - SSW 15 17 8 9 - - -
01/12:00am - - - - - SSW 17 20 9 11 - - -
 
Date/Time
WST
Temp
°C
App
Temp
°C
Dew
Point
Rel
Hum
%
Delta-T
°C
Wind Press
QNH
hPa
Press
MSL
hPa
Rain
since 9 am
mm
Dir
 
Spd
km/h
Gust
km/h
Spd
kts
Gust
kts
30/11:30pm - - - - - SSW 19 20 10 11 - - -
30/11:00pm - - - - - SSW 15 19 8 10 - - -
30/10:30pm - - - - - S 17 20 9 11 - - -
30/10:00pm - - - - - S 19 22 10 12 - - -
30/09:30pm - - - - - S 17 20 9 11 - - -
30/09:00pm - - - - - SSW 17 20 9 11 - - -
30/08:30pm - - - - - SSW 17 20 9 11 - - -
30/08:00pm - - - - - SW 11 13 6 7 - - -
30/07:30pm - - - - - WSW 15 17 8 9 - - -
30/07:00pm - - - - - W 17 19 9 10 - - -
30/06:30pm - - - - - WNW 13 15 7 8 - - -
30/06:00pm - - - - - WNW 13 13 7 7 - - -
30/05:30pm - - - - - WNW 13 15 7 8 - - -
30/05:00pm - - - - - WNW 13 15 7 8 - - -
30/04:30pm - - - - - NW 15 17 8 9 - - -
30/04:00pm - - - - - NW 15 17 8 9 - - -
30/03:30pm - - - - - NNW 11 13 6 7 - - -
30/03:00pm - - - - - N 13 15 7 8 - - -
30/02:30pm - - - - - N 13 15 7 8 - - -
30/02:00pm - - - - - N 11 13 6 7 - - -
30/01:30pm - - - - - N 9 11 5 6 - - -
30/01:00pm - - - - - NNE 11 15 6 8 - - -
30/12:30pm - - - - - NNE 11 13 6 7 - - -
30/12:00pm - - - - - ENE 2 9 1 5 - - -
30/11:30am - - - - - SSE 11 15 6 8 - - -
30/11:00am - - - - - SSE 11 15 6 8 - - -
30/10:30am - - - - - E 7 11 4 6 - - -
30/10:00am - - - - - E 17 19 9 10 - - -
30/09:30am - - - - - ESE 13 17 7 9 - - -
30/09:00am - - - - - SE 13 17 7 9 - - -
30/08:30am - - - - - SE 9 11 5 6 - - -
30/08:00am - - - - - SE 11 13 6 7 - - -
30/07:30am - - - - - SSE 11 13 6 7 - - -
30/07:00am - - - - - S 13 15 7 8 - - -
30/06:30am - - - - - SSE 13 17 7 9 - - -
30/06:00am - - - - - SSE 11 13 6 7 - - -
30/05:30am - - - - - SSE 7 9 4 5 - - -
30/05:00am - - - - - S 7 9 4 5 - - -
30/04:30am - - - - - SSW 11 15 6 8 - - -
30/04:00am - - - - - WSW 15 19 8 10 - - -
30/03:30am - - - - - SSW 15 17 8 9 - - -
30/03:00am - - - - - SSW 17 20 9 11 - - -
30/02:30am - - - - - SW 15 19 8 10 - - -
30/02:00am - - - - - SW 15 17 8 9 - - -
30/01:30am - - - - - SW 7 9 4 5 - - -
30/01:00am - - - - - SW 7 9 4 5 - - -
30/12:30am - - - - - WSW 7 9 4 5 - - -
30/12:00am - - - - - SW 9 11 5 6 - - -
 
Date/Time
WST
Temp
°C
App
Temp
°C
Dew
Point
Rel
Hum
%
Delta-T
°C
Wind Press
QNH
hPa
Press
MSL
hPa
Rain
since 9 am
mm
Dir
 
Spd
km/h
Gust
km/h
Spd
kts
Gust
kts
29/11:30pm - - - - - SW 11 13 6 7 - - -
29/11:00pm - - - - - WSW 11 13 6 7 - - -
29/10:30pm - - - - - WSW 22 30 12 16 - - -
29/10:00pm - - - - - SW 17 22 9 12 - - -
29/09:30pm - - - - - SW 11 15 6 8 - - -
29/09:00pm - - - - - WSW 19 24 10 13 - - -

Other Formats:

Comma delimited format used in spreadsheet applications
http://www.bom.gov.au/fwo/IDW60801/IDW60801.95602.axf

JavaScript Object Notation format (JSON) in row-major order
http://www.bom.gov.au/fwo/IDW60801/IDW60801.95602.json